Terminal Aerodrome Forecast
Issued by NWS

Home | Current Version | Previous Version | Text Only | Print | Product List | Glossary On
Versions: 1 2 3 4 5 6 7 8 9 10 11 12 13 14
000
FTUS43 KOAX 031126
TAFBFF
TAF
KBFF 031126Z 0312/0412 VRB05KT P6SM SCT120
     FM031800 19008KT P6SM SCT100 BKN150
     FM032200 20010KT P6SM -SHRA VCTS SCT070CB BKN100
     FM040300 31004KT P6SM BKN120=

USA.gov is the U.S. government's official web portal to all federal, state and local government web resources and services.